Terminal Aerodrome Forecast
Issued by NWS Buffalo, NY

Home | Current Version | Previous Version | Text Only | Print | Product List | Glossary On
Versions: 1 2 3 4 5 6 7 8 9 10 11 12 13 14 15 16 17 18 19 20 21 22 23 24 25
000
FTUS41 KBUF 182300
TAFART
TAF
KART 182339Z 1900/1924 28008KT P6SM OVC050
     FM190100 29007KT P6SM SHRA OVC045
     FM190300 32008KT P6SM BKN060
     FM191100 31008KT P6SM SCT035 BKN250
     FM192300 36007KT P6SM FEW250=

USA.gov is the U.S. government's official web portal to all federal, state and local government web resources and services.